sensor_id;sensor_type;location;lat;lon;timestamp;P1;durP1;ratioP1;P2;durP2;ratioP2
69714;SDS011;56981;53.532;49.398;2022-12-04T00:01:03;5.38;;;0.98;;
69714;SDS011;56981;53.532;49.398;2022-12-04T00:03:30;4.57;;;2.58;;
69714;SDS011;56981;53.532;49.398;2022-12-04T00:06:04;2.55;;;1.48;;
69714;SDS011;56981;53.532;49.398;2022-12-04T00:08:35;2.95;;;1.67;;
69714;SDS011;56981;53.532;49.398;2022-12-04T00:11:04;3.75;;;2.65;;
69714;SDS011;56981;53.532;49.398;2022-12-04T00:13:31;3.40;;;1.48;;
69714;SDS011;56981;53.532;49.398;2022-12-04T00:15:58;4.95;;;3.00;;
69714;SDS011;56981;53.532;49.398;2022-12-04T00:18:25;8.52;;;3.35;;
69714;SDS011;56981;53.532;49.398;2022-12-04T00:20:52;3.95;;;1.33;;
69714;SDS011;56981;53.532;49.398;2022-12-04T00:23:18;3.72;;;2.28;;
69714;SDS011;56981;53.532;49.398;2022-12-04T00:25:44;0.73;;;0.73;;
69714;SDS011;56981;53.532;49.398;2022-12-04T00:28:16;1.50;;;1.40;;
69714;SDS011;56981;53.532;49.398;2022-12-04T00:30:43;2.33;;;1.95;;
69714;SDS011;56981;53.532;49.398;2022-12-04T00:33:10;2.65;;;2.13;;
69714;SDS011;56981;53.532;49.398;2022-12-04T00:35:37;3.97;;;2.38;;
69714;SDS011;56981;53.532;49.398;2022-12-04T00:38:04;0.85;;;0.85;;
69714;SDS011;56981;53.532;49.398;2022-12-04T00:40:30;3.25;;;2.50;;
69714;SDS011;56981;53.532;49.398;2022-12-04T00:42:56;4.40;;;3.53;;
69714;SDS011;56981;53.532;49.398;2022-12-04T00:45:22;2.97;;;0.93;;
69714;SDS011;56981;53.532;49.398;2022-12-04T00:47:48;3.55;;;2.20;;
69714;SDS011;56981;53.532;49.398;2022-12-04T00:50:14;9.98;;;2.33;;
69714;SDS011;56981;53.532;49.398;2022-12-04T00:52:41;4.97;;;3.42;;
69714;SDS011;56981;53.532;49.398;2022-12-04T00:55:12;26.65;;;10.68;;
69714;SDS011;56981;53.532;49.398;2022-12-04T00:57:38;24.80;;;9.88;;
69714;SDS011;56981;53.532;49.398;2022-12-04T01:00:04;24.88;;;11.07;;
69714;SDS011;56981;53.532;49.398;2022-12-04T01:02:31;30.83;;;11.43;;
69714;SDS011;56981;53.532;49.398;2022-12-04T01:04:59;37.03;;;11.93;;
69714;SDS011;56981;53.532;49.398;2022-12-04T01:07:26;31.35;;;16.17;;
69714;SDS011;56981;53.532;49.398;2022-12-04T01:09:52;26.42;;;11.50;;
69714;SDS011;56981;53.532;49.398;2022-12-04T01:12:18;23.27;;;10.07;;
69714;SDS011;56981;53.532;49.398;2022-12-04T01:14:44;29.73;;;7.50;;
69714;SDS011;56981;53.532;49.398;2022-12-04T01:17:10;19.05;;;6.95;;
69714;SDS011;56981;53.532;49.398;2022-12-04T01:19:36;4.95;;;3.55;;
69714;SDS011;56981;53.532;49.398;2022-12-04T01:22:02;16.05;;;8.70;;
69714;SDS011;56981;53.532;49.398;2022-12-04T01:24:28;24.23;;;11.35;;
69714;SDS011;56981;53.532;49.398;2022-12-04T01:26:54;13.80;;;6.65;;
69714;SDS011;56981;53.532;49.398;2022-12-04T01:29:20;7.13;;;4.35;;
69714;SDS011;56981;53.532;49.398;2022-12-04T01:31:46;8.85;;;4.20;;
69714;SDS011;56981;53.532;49.398;2022-12-04T01:34:12;13.63;;;6.25;;
69714;SDS011;56981;53.532;49.398;2022-12-04T01:36:38;12.15;;;5.20;;
69714;SDS011;56981;53.532;49.398;2022-12-04T01:39:04;5.15;;;3.67;;
69714;SDS011;56981;53.532;49.398;2022-12-04T01:41:30;5.00;;;4.63;;
69714;SDS011;56981;53.532;49.398;2022-12-04T01:44:10;6.50;;;5.65;;
69714;SDS011;56981;53.532;49.398;2022-12-04T01:46:39;14.95;;;4.28;;
69714;SDS011;56981;53.532;49.398;2022-12-04T01:49:07;18.15;;;8.10;;
69714;SDS011;56981;53.532;49.398;2022-12-04T01:52:06;8.60;;;3.95;;
69714;SDS011;56981;53.532;49.398;2022-12-04T01:54:45;14.48;;;3.70;;
69714;SDS011;56981;53.532;49.398;2022-12-04T01:57:15;7.00;;;4.63;;
69714;SDS011;56981;53.532;49.398;2022-12-04T01:59:50;13.90;;;5.03;;
69714;SDS011;56981;53.532;49.398;2022-12-04T02:02:27;6.82;;;2.30;;
69714;SDS011;56981;53.532;49.398;2022-12-04T02:04:58;13.48;;;6.03;;
69714;SDS011;56981;53.532;49.398;2022-12-04T02:07:25;16.15;;;6.18;;
69714;SDS011;56981;53.532;49.398;2022-12-04T02:09:51;18.40;;;5.50;;
69714;SDS011;56981;53.532;49.398;2022-12-04T02:28:24;1.75;;;0.77;;
69714;SDS011;56981;53.532;49.398;2022-12-04T02:30:56;9.48;;;1.25;;
69714;SDS011;56981;53.532;49.398;2022-12-04T02:33:26;3.97;;;2.05;;
69714;SDS011;56981;53.532;49.398;2022-12-04T02:36:23;3.72;;;3.13;;
69714;SDS011;56981;53.532;49.398;2022-12-04T02:41:35;3.42;;;3.03;;
69714;SDS011;56981;53.532;49.398;2022-12-04T02:44:11;3.38;;;2.40;;
69714;SDS011;56981;53.532;49.398;2022-12-04T02:46:42;2.63;;;2.38;;
69714;SDS011;56981;53.532;49.398;2022-12-04T02:49:21;5.00;;;2.35;;
69714;SDS011;56981;53.532;49.398;2022-12-04T02:51:52;7.88;;;3.63;;
69714;SDS011;56981;53.532;49.398;2022-12-04T02:54:31;2.92;;;1.77;;
69714;SDS011;56981;53.532;49.398;2022-12-04T02:57:01;3.88;;;3.50;;
69714;SDS011;56981;53.532;49.398;2022-12-04T02:59:32;11.18;;;5.70;;
69714;SDS011;56981;53.532;49.398;2022-12-04T03:02:11;24.00;;;7.85;;
69714;SDS011;56981;53.532;49.398;2022-12-04T03:04:46;7.28;;;3.15;;
69714;SDS011;56981;53.532;49.398;2022-12-04T03:07:16;3.35;;;1.65;;
69714;SDS011;56981;53.532;49.398;2022-12-04T03:09:58;5.70;;;3.78;;
69714;SDS011;56981;53.532;49.398;2022-12-04T03:12:35;9.93;;;5.10;;
69714;SDS011;56981;53.532;49.398;2022-12-04T03:15:11;11.65;;;5.57;;
69714;SDS011;56981;53.532;49.398;2022-12-04T03:20:39;9.27;;;4.72;;
69714;SDS011;56981;53.532;49.398;2022-12-04T03:23:09;0.00;;;0.00;;
69714;SDS011;56981;53.532;49.398;2022-12-04T03:26:02;9.25;;;4.10;;
69714;SDS011;56981;53.532;49.398;2022-12-04T03:28:28;1.38;;;0.55;;
69714;SDS011;56981;53.532;49.398;2022-12-04T03:31:01;2.33;;;2.17;;
69714;SDS011;56981;53.532;49.398;2022-12-04T03:33:37;17.73;;;7.13;;
69714;SDS011;56981;53.532;49.398;2022-12-04T03:36:19;3.20;;;2.20;;
69714;SDS011;56981;53.532;49.398;2022-12-04T03:38:54;9.10;;;1.73;;
69714;SDS011;56981;53.532;49.398;2022-12-04T03:46:57;8.60;;;4.18;;
69714;SDS011;56981;53.532;49.398;2022-12-04T03:49:42;10.32;;;4.80;;
69714;SDS011;56981;53.532;49.398;2022-12-04T03:54:48;7.05;;;2.30;;
69714;SDS011;56981;53.532;49.398;2022-12-04T03:59:47;2.13;;;1.02;;
69714;SDS011;56981;53.532;49.398;2022-12-04T04:02:20;4.70;;;4.18;;
69714;SDS011;56981;53.532;49.398;2022-12-04T04:04:50;1.38;;;1.35;;
69714;SDS011;56981;53.532;49.398;2022-12-04T04:07:22;8.75;;;3.90;;
69714;SDS011;56981;53.532;49.398;2022-12-04T04:09:53;5.93;;;2.53;;
69714;SDS011;56981;53.532;49.398;2022-12-04T04:12:26;13.60;;;4.85;;
69714;SDS011;56981;53.532;49.398;2022-12-04T04:15:03;2.53;;;2.13;;
69714;SDS011;56981;53.532;49.398;2022-12-04T04:17:51;2.90;;;1.45;;
69714;SDS011;56981;53.532;49.398;2022-12-04T04:20:47;6.57;;;3.17;;
69714;SDS011;56981;53.532;49.398;2022-12-04T04:23:45;7.93;;;3.45;;
69714;SDS011;56981;53.532;49.398;2022-12-04T04:26:35;6.55;;;2.65;;
69714;SDS011;56981;53.532;49.398;2022-12-04T04:29:05;2.20;;;1.40;;
69714;SDS011;56981;53.532;49.398;2022-12-04T04:31:44;2.55;;;2.25;;
69714;SDS011;56981;53.532;49.398;2022-12-04T04:47:12;1.00;;;1.00;;
69714;SDS011;56981;53.532;49.398;2022-12-04T04:49:43;1.00;;;0.50;;
69714;SDS011;56981;53.532;49.398;2022-12-04T04:52:11;3.85;;;1.30;;
69714;SDS011;56981;53.532;49.398;2022-12-04T04:54:38;10.55;;;2.08;;
69714;SDS011;56981;53.532;49.398;2022-12-04T04:57:04;6.30;;;3.13;;
69714;SDS011;56981;53.532;49.398;2022-12-04T04:59:30;4.38;;;1.77;;
69714;SDS011;56981;53.532;49.398;2022-12-04T05:01:58;8.55;;;4.60;;
69714;SDS011;56981;53.532;49.398;2022-12-04T05:04:27;2.80;;;1.85;;
69714;SDS011;56981;53.532;49.398;2022-12-04T05:06:53;0.60;;;0.60;;
69714;SDS011;56981;53.532;49.398;2022-12-04T05:09:19;11.90;;;3.40;;
69714;SDS011;56981;53.532;49.398;2022-12-04T05:11:45;8.27;;;4.95;;
69714;SDS011;56981;53.532;49.398;2022-12-04T05:14:11;4.25;;;2.08;;
69714;SDS011;56981;53.532;49.398;2022-12-04T05:16:37;2.05;;;1.95;;
69714;SDS011;56981;53.532;49.398;2022-12-04T05:19:05;4.38;;;2.70;;
69714;SDS011;56981;53.532;49.398;2022-12-04T05:21:49;3.10;;;2.80;;
69714;SDS011;56981;53.532;49.398;2022-12-04T05:24:15;3.60;;;2.72;;
69714;SDS011;56981;53.532;49.398;2022-12-04T05:26:41;0.95;;;0.50;;
69714;SDS011;56981;53.532;49.398;2022-12-04T05:29:07;19.60;;;4.38;;
69714;SDS011;56981;53.532;49.398;2022-12-04T05:31:33;3.17;;;2.85;;
69714;SDS011;56981;53.532;49.398;2022-12-04T05:33:59;10.23;;;6.10;;
69714;SDS011;56981;53.532;49.398;2022-12-04T05:36:25;12.52;;;6.80;;
69714;SDS011;56981;53.532;49.398;2022-12-04T05:38:51;10.38;;;4.47;;
69714;SDS011;56981;53.532;49.398;2022-12-04T05:41:17;11.60;;;2.90;;
69714;SDS011;56981;53.532;49.398;2022-12-04T05:43:43;8.80;;;5.38;;
69714;SDS011;56981;53.532;49.398;2022-12-04T05:46:09;8.70;;;5.03;;
69714;SDS011;56981;53.532;49.398;2022-12-04T05:48:35;18.40;;;9.07;;
69714;SDS011;56981;53.532;49.398;2022-12-04T05:51:09;19.98;;;7.00;;
69714;SDS011;56981;53.532;49.398;2022-12-04T05:53:35;17.63;;;9.13;;
69714;SDS011;56981;53.532;49.398;2022-12-04T05:56:02;19.58;;;8.50;;
69714;SDS011;56981;53.532;49.398;2022-12-04T05:58:33;17.83;;;7.05;;
69714;SDS011;56981;53.532;49.398;2022-12-04T06:01:06;20.13;;;8.30;;
69714;SDS011;56981;53.532;49.398;2022-12-04T06:03:33;17.75;;;8.63;;
69714;SDS011;56981;53.532;49.398;2022-12-04T06:05:59;15.95;;;7.85;;
69714;SDS011;56981;53.532;49.398;2022-12-04T06:08:25;14.80;;;7.97;;
69714;SDS011;56981;53.532;49.398;2022-12-04T06:10:51;14.82;;;7.68;;
69714;SDS011;56981;53.532;49.398;2022-12-04T06:13:17;18.27;;;9.73;;
69714;SDS011;56981;53.532;49.398;2022-12-04T06:15:43;14.57;;;8.77;;
69714;SDS011;56981;53.532;49.398;2022-12-04T06:18:09;12.80;;;6.53;;
69714;SDS011;56981;53.532;49.398;2022-12-04T06:20:35;13.52;;;7.32;;
69714;SDS011;56981;53.532;49.398;2022-12-04T06:23:01;16.08;;;8.57;;
69714;SDS011;56981;53.532;49.398;2022-12-04T06:26:00;19.42;;;7.60;;
69714;SDS011;56981;53.532;49.398;2022-12-04T06:28:28;16.73;;;8.15;;
69714;SDS011;56981;53.532;49.398;2022-12-04T06:30:54;21.10;;;8.65;;
69714;SDS011;56981;53.532;49.398;2022-12-04T06:33:20;17.65;;;8.20;;
69714;SDS011;56981;53.532;49.398;2022-12-04T06:35:46;14.02;;;7.00;;
69714;SDS011;56981;53.532;49.398;2022-12-04T06:38:12;16.77;;;8.57;;
69714;SDS011;56981;53.532;49.398;2022-12-04T06:40:38;20.20;;;8.02;;
69714;SDS011;56981;53.532;49.398;2022-12-04T06:43:05;19.13;;;8.25;;
69714;SDS011;56981;53.532;49.398;2022-12-04T06:45:30;19.17;;;7.88;;
69714;SDS011;56981;53.532;49.398;2022-12-04T06:47:56;21.05;;;8.45;;
69714;SDS011;56981;53.532;49.398;2022-12-04T06:50:23;23.45;;;8.98;;
69714;SDS011;56981;53.532;49.398;2022-12-04T06:52:48;20.67;;;8.52;;
69714;SDS011;56981;53.532;49.398;2022-12-04T06:55:14;21.90;;;8.35;;
69714;SDS011;56981;53.532;49.398;2022-12-04T06:57:40;20.58;;;8.93;;
69714;SDS011;56981;53.532;49.398;2022-12-04T07:00:06;23.05;;;9.07;;
69714;SDS011;56981;53.532;49.398;2022-12-04T07:02:33;17.17;;;6.10;;
69714;SDS011;56981;53.532;49.398;2022-12-04T07:04:59;13.52;;;7.60;;
69714;SDS011;56981;53.532;49.398;2022-12-04T07:07:28;13.15;;;4.40;;
69714;SDS011;56981;53.532;49.398;2022-12-04T07:09:54;13.00;;;6.07;;
69714;SDS011;56981;53.532;49.398;2022-12-04T07:12:20;10.85;;;5.53;;
69714;SDS011;56981;53.532;49.398;2022-12-04T07:14:46;14.32;;;5.82;;
69714;SDS011;56981;53.532;49.398;2022-12-04T07:17:12;14.80;;;5.40;;
69714;SDS011;56981;53.532;49.398;2022-12-04T07:19:38;10.68;;;6.43;;
69714;SDS011;56981;53.532;49.398;2022-12-04T07:22:04;10.43;;;3.80;;
69714;SDS011;56981;53.532;49.398;2022-12-04T07:24:34;10.73;;;5.45;;
69714;SDS011;56981;53.532;49.398;2022-12-04T07:27:00;15.05;;;5.55;;
69714;SDS011;56981;53.532;49.398;2022-12-04T07:29:26;13.50;;;5.60;;
69714;SDS011;56981;53.532;49.398;2022-12-04T07:31:52;11.60;;;5.68;;
69714;SDS011;56981;53.532;49.398;2022-12-04T07:34:18;10.02;;;4.50;;
69714;SDS011;56981;53.532;49.398;2022-12-04T07:36:44;7.75;;;4.43;;
69714;SDS011;56981;53.532;49.398;2022-12-04T07:39:10;9.98;;;5.00;;
69714;SDS011;56981;53.532;49.398;2022-12-04T07:41:36;11.95;;;5.97;;
69714;SDS011;56981;53.532;49.398;2022-12-04T07:44:02;10.75;;;5.00;;
69714;SDS011;56981;53.532;49.398;2022-12-04T07:46:28;14.05;;;5.90;;
69714;SDS011;56981;53.532;49.398;2022-12-04T07:48:55;12.50;;;4.65;;
69714;SDS011;56981;53.532;49.398;2022-12-04T07:51:22;8.60;;;4.50;;
69714;SDS011;56981;53.532;49.398;2022-12-04T07:53:53;10.88;;;4.28;;
69714;SDS011;56981;53.532;49.398;2022-12-04T07:56:20;15.88;;;6.60;;
69714;SDS011;56981;53.532;49.398;2022-12-04T07:58:46;6.13;;;3.60;;
69714;SDS011;56981;53.532;49.398;2022-12-04T08:01:13;12.85;;;4.95;;
69714;SDS011;56981;53.532;49.398;2022-12-04T08:03:41;9.95;;;5.25;;
69714;SDS011;56981;53.532;49.398;2022-12-04T08:06:09;12.07;;;4.28;;
69714;SDS011;56981;53.532;49.398;2022-12-04T08:08:35;13.23;;;4.72;;
69714;SDS011;56981;53.532;49.398;2022-12-04T08:11:08;12.60;;;5.15;;
69714;SDS011;56981;53.532;49.398;2022-12-04T08:13:35;11.73;;;4.55;;
69714;SDS011;56981;53.532;49.398;2022-12-04T08:16:02;10.68;;;5.68;;
69714;SDS011;56981;53.532;49.398;2022-12-04T08:18:29;8.80;;;5.13;;
69714;SDS011;56981;53.532;49.398;2022-12-04T08:21:09;11.35;;;4.80;;
69714;SDS011;56981;53.532;49.398;2022-12-04T08:23:37;15.25;;;6.00;;
69714;SDS011;56981;53.532;49.398;2022-12-04T08:26:05;9.30;;;3.90;;
69714;SDS011;56981;53.532;49.398;2022-12-04T08:28:32;9.95;;;4.93;;
69714;SDS011;56981;53.532;49.398;2022-12-04T08:31:03;13.95;;;5.03;;
69714;SDS011;56981;53.532;49.398;2022-12-04T08:33:33;9.38;;;4.30;;
69714;SDS011;56981;53.532;49.398;2022-12-04T08:35:59;9.15;;;4.47;;
69714;SDS011;56981;53.532;49.398;2022-12-04T08:38:25;10.27;;;4.93;;
69714;SDS011;56981;53.532;49.398;2022-12-04T08:40:52;12.07;;;5.20;;
69714;SDS011;56981;53.532;49.398;2022-12-04T08:43:23;12.02;;;5.60;;
69714;SDS011;56981;53.532;49.398;2022-12-04T08:45:56;6.35;;;4.25;;
69714;SDS011;56981;53.532;49.398;2022-12-04T08:48:24;13.90;;;5.10;;
69714;SDS011;56981;53.532;49.398;2022-12-04T08:50:52;10.90;;;4.38;;
69714;SDS011;56981;53.532;49.398;2022-12-04T08:53:18;18.58;;;6.53;;
69714;SDS011;56981;53.532;49.398;2022-12-04T08:55:44;9.82;;;3.60;;
69714;SDS011;56981;53.532;49.398;2022-12-04T08:58:15;9.93;;;4.32;;
69714;SDS011;56981;53.532;49.398;2022-12-04T09:00:42;8.23;;;4.70;;
69714;SDS011;56981;53.532;49.398;2022-12-04T09:03:09;9.95;;;4.45;;
69714;SDS011;56981;53.532;49.398;2022-12-04T09:05:38;9.57;;;3.60;;
69714;SDS011;56981;53.532;49.398;2022-12-04T09:08:04;8.13;;;4.20;;
69714;SDS011;56981;53.532;49.398;2022-12-04T09:10:30;7.05;;;4.28;;
69714;SDS011;56981;53.532;49.398;2022-12-04T09:12:59;4.97;;;3.28;;
69714;SDS011;56981;53.532;49.398;2022-12-04T09:15:26;14.05;;;5.25;;
69714;SDS011;56981;53.532;49.398;2022-12-04T09:17:52;10.10;;;3.88;;
69714;SDS011;56981;53.532;49.398;2022-12-04T09:20:18;8.10;;;3.60;;
69714;SDS011;56981;53.532;49.398;2022-12-04T09:22:44;8.82;;;3.83;;
69714;SDS011;56981;53.532;49.398;2022-12-04T09:25:10;10.75;;;4.28;;
69714;SDS011;56981;53.532;49.398;2022-12-04T09:27:37;4.55;;;2.42;;
69714;SDS011;56981;53.532;49.398;2022-12-04T09:30:06;10.63;;;3.50;;
69714;SDS011;56981;53.532;49.398;2022-12-04T09:32:34;11.75;;;4.18;;
69714;SDS011;56981;53.532;49.398;2022-12-04T09:35:01;10.35;;;4.38;;
69714;SDS011;56981;53.532;49.398;2022-12-04T09:37:27;6.90;;;4.00;;
69714;SDS011;56981;53.532;49.398;2022-12-04T09:39:53;14.82;;;7.35;;
69714;SDS011;56981;53.532;49.398;2022-12-04T09:42:22;7.60;;;3.35;;
69714;SDS011;56981;53.532;49.398;2022-12-04T09:48:03;4.72;;;2.65;;
69714;SDS011;56981;53.532;49.398;2022-12-04T09:50:42;8.38;;;3.40;;
69714;SDS011;56981;53.532;49.398;2022-12-04T09:58:22;2.75;;;1.75;;
69714;SDS011;56981;53.532;49.398;2022-12-04T10:00:57;4.22;;;3.00;;
69714;SDS011;56981;53.532;49.398;2022-12-04T10:03:25;9.02;;;3.17;;
69714;SDS011;56981;53.532;49.398;2022-12-04T10:09:37;9.32;;;3.30;;
69714;SDS011;56981;53.532;49.398;2022-12-04T10:14:20;9.20;;;3.15;;
69714;SDS011;56981;53.532;49.398;2022-12-04T10:22:15;6.45;;;3.20;;
69714;SDS011;56981;53.532;49.398;2022-12-04T10:24:58;8.55;;;3.80;;
69714;SDS011;56981;53.532;49.398;2022-12-04T10:30:48;6.10;;;2.83;;
69714;SDS011;56981;53.532;49.398;2022-12-04T10:32:58;14.35;;;4.93;;
69714;SDS011;56981;53.532;49.398;2022-12-04T10:35:30;7.55;;;3.17;;
69714;SDS011;56981;53.532;49.398;2022-12-04T10:38:03;8.10;;;3.38;;
69714;SDS011;56981;53.532;49.398;2022-12-04T10:40:41;7.60;;;3.08;;
69714;SDS011;56981;53.532;49.398;2022-12-04T10:43:47;9.20;;;3.67;;
69714;SDS011;56981;53.532;49.398;2022-12-04T10:46:07;5.53;;;2.45;;
69714;SDS011;56981;53.532;49.398;2022-12-04T10:48:37;3.88;;;2.65;;
69714;SDS011;56981;53.532;49.398;2022-12-04T10:51:09;8.13;;;4.20;;
69714;SDS011;56981;53.532;49.398;2022-12-04T10:53:39;11.15;;;2.72;;
69714;SDS011;56981;53.532;49.398;2022-12-04T10:56:14;8.68;;;3.78;;
69714;SDS011;56981;53.532;49.398;2022-12-04T10:58:59;5.95;;;3.28;;
69714;SDS011;56981;53.532;49.398;2022-12-04T11:01:31;7.45;;;3.22;;
69714;SDS011;56981;53.532;49.398;2022-12-04T11:03:59;5.88;;;2.60;;
69714;SDS011;56981;53.532;49.398;2022-12-04T11:06:30;8.10;;;3.90;;
69714;SDS011;56981;53.532;49.398;2022-12-04T11:08:57;4.97;;;2.42;;
69714;SDS011;56981;53.532;49.398;2022-12-04T11:11:28;9.48;;;3.25;;
69714;SDS011;56981;53.532;49.398;2022-12-04T11:14:04;8.25;;;4.43;;
69714;SDS011;56981;53.532;49.398;2022-12-04T11:16:38;10.27;;;4.30;;
69714;SDS011;56981;53.532;49.398;2022-12-04T11:19:22;8.20;;;3.50;;
69714;SDS011;56981;53.532;49.398;2022-12-04T11:21:54;11.68;;;4.85;;
69714;SDS011;56981;53.532;49.398;2022-12-04T11:24:26;21.70;;;4.15;;
69714;SDS011;56981;53.532;49.398;2022-12-04T11:27:04;10.63;;;4.82;;
69714;SDS011;56981;53.532;49.398;2022-12-04T11:29:36;8.30;;;4.05;;
69714;SDS011;56981;53.532;49.398;2022-12-04T11:32:27;6.80;;;3.63;;
69714;SDS011;56981;53.532;49.398;2022-12-04T11:35:03;8.32;;;4.22;;
69714;SDS011;56981;53.532;49.398;2022-12-04T11:37:49;10.38;;;4.75;;
69714;SDS011;56981;53.532;49.398;2022-12-04T11:40:19;7.65;;;3.90;;
69714;SDS011;56981;53.532;49.398;2022-12-04T11:45:30;6.65;;;4.60;;
69714;SDS011;56981;53.532;49.398;2022-12-04T11:47:58;9.82;;;4.38;;
69714;SDS011;56981;53.532;49.398;2022-12-04T11:53:15;9.93;;;4.65;;
69714;SDS011;56981;53.532;49.398;2022-12-04T12:01:24;8.10;;;3.90;;
69714;SDS011;56981;53.532;49.398;2022-12-04T12:20:36;10.75;;;4.30;;
69714;SDS011;56981;53.532;49.398;2022-12-04T12:26:35;7.38;;;3.35;;
69714;SDS011;56981;53.532;49.398;2022-12-04T12:34:55;8.68;;;4.00;;
69714;SDS011;56981;53.532;49.398;2022-12-04T12:43:10;14.25;;;4.95;;
69714;SDS011;56981;53.532;49.398;2022-12-04T12:51:54;9.52;;;4.68;;
69714;SDS011;56981;53.532;49.398;2022-12-04T12:54:25;13.02;;;5.75;;
69714;SDS011;56981;53.532;49.398;2022-12-04T12:57:03;9.10;;;4.53;;
69714;SDS011;56981;53.532;49.398;2022-12-04T13:02:26;10.60;;;4.32;;
69714;SDS011;56981;53.532;49.398;2022-12-04T13:05:09;19.33;;;7.30;;
69714;SDS011;56981;53.532;49.398;2022-12-04T13:10:17;12.68;;;6.90;;
69714;SDS011;56981;53.532;49.398;2022-12-04T13:12:58;12.30;;;4.85;;
69714;SDS011;56981;53.532;49.398;2022-12-04T13:15:38;14.20;;;6.20;;
69714;SDS011;56981;53.532;49.398;2022-12-04T13:18:24;11.50;;;5.65;;
69714;SDS011;56981;53.532;49.398;2022-12-04T13:20:54;20.50;;;7.13;;
69714;SDS011;56981;53.532;49.398;2022-12-04T13:28:59;17.55;;;6.90;;
69714;SDS011;56981;53.532;49.398;2022-12-04T13:31:58;14.70;;;5.47;;
69714;SDS011;56981;53.532;49.398;2022-12-04T13:42:51;22.10;;;9.02;;
69714;SDS011;56981;53.532;49.398;2022-12-04T13:45:24;20.30;;;8.30;;
69714;SDS011;56981;53.532;49.398;2022-12-04T13:47:56;19.75;;;7.60;;
69714;SDS011;56981;53.532;49.398;2022-12-04T13:50:30;20.30;;;7.45;;
69714;SDS011;56981;53.532;49.398;2022-12-04T13:52:59;29.77;;;9.90;;
69714;SDS011;56981;53.532;49.398;2022-12-04T13:55:32;20.98;;;9.30;;
69714;SDS011;56981;53.532;49.398;2022-12-04T14:00:37;22.73;;;8.60;;
69714;SDS011;56981;53.532;49.398;2022-12-04T14:05:57;6.10;;;4.65;;
69714;SDS011;56981;53.532;49.398;2022-12-04T14:08:37;19.02;;;6.07;;
69714;SDS011;56981;53.532;49.398;2022-12-04T14:11:10;13.45;;;7.32;;
69714;SDS011;56981;53.532;49.398;2022-12-04T14:16:08;19.75;;;7.97;;
69714;SDS011;56981;53.532;49.398;2022-12-04T14:18:50;17.58;;;6.70;;
69714;SDS011;56981;53.532;49.398;2022-12-04T14:21:21;17.40;;;7.18;;
69714;SDS011;56981;53.532;49.398;2022-12-04T14:23:48;11.75;;;6.20;;
69714;SDS011;56981;53.532;49.398;2022-12-04T14:26:26;12.85;;;5.78;;
69714;SDS011;56981;53.532;49.398;2022-12-04T14:29:05;5.32;;;2.20;;
69714;SDS011;56981;53.532;49.398;2022-12-04T14:31:50;18.45;;;8.20;;
69714;SDS011;56981;53.532;49.398;2022-12-04T14:34:22;18.83;;;8.88;;
69714;SDS011;56981;53.532;49.398;2022-12-04T14:36:56;14.80;;;8.18;;
69714;SDS011;56981;53.532;49.398;2022-12-04T14:39:34;12.32;;;6.10;;
69714;SDS011;56981;53.532;49.398;2022-12-04T14:42:11;18.80;;;6.75;;
69714;SDS011;56981;53.532;49.398;2022-12-04T14:44:41;16.70;;;6.43;;
69714;SDS011;56981;53.532;49.398;2022-12-04T14:47:17;9.98;;;4.00;;
69714;SDS011;56981;53.532;49.398;2022-12-04T14:50:18;13.60;;;5.95;;
69714;SDS011;56981;53.532;49.398;2022-12-04T14:58:47;14.63;;;6.72;;
69714;SDS011;56981;53.532;49.398;2022-12-04T15:01:21;17.00;;;6.88;;
69714;SDS011;56981;53.532;49.398;2022-12-04T15:03:54;10.43;;;5.40;;
69714;SDS011;56981;53.532;49.398;2022-12-04T15:06:34;13.65;;;6.32;;
69714;SDS011;56981;53.532;49.398;2022-12-04T15:09:23;5.22;;;3.95;;
69714;SDS011;56981;53.532;49.398;2022-12-04T15:12:13;14.98;;;6.07;;
69714;SDS011;56981;53.532;49.398;2022-12-04T15:15:10;8.35;;;4.72;;
69714;SDS011;56981;53.532;49.398;2022-12-04T15:18:01;5.70;;;3.33;;
69714;SDS011;56981;53.532;49.398;2022-12-04T15:20:32;9.95;;;4.72;;
69714;SDS011;56981;53.532;49.398;2022-12-04T15:23:20;8.40;;;4.28;;
69714;SDS011;56981;53.532;49.398;2022-12-04T15:25:56;7.63;;;4.45;;
69714;SDS011;56981;53.532;49.398;2022-12-04T15:28:28;10.30;;;5.10;;
69714;SDS011;56981;53.532;49.398;2022-12-04T15:30:59;7.50;;;3.50;;
69714;SDS011;56981;53.532;49.398;2022-12-04T15:33:29;17.38;;;6.85;;
69714;SDS011;56981;53.532;49.398;2022-12-04T15:38:33;9.98;;;4.68;;
69714;SDS011;56981;53.532;49.398;2022-12-04T15:41:00;15.50;;;5.22;;
69714;SDS011;56981;53.532;49.398;2022-12-04T15:43:31;9.00;;;4.43;;
69714;SDS011;56981;53.532;49.398;2022-12-04T15:46:33;8.52;;;5.53;;
69714;SDS011;56981;53.532;49.398;2022-12-04T15:52:33;11.25;;;5.32;;
69714;SDS011;56981;53.532;49.398;2022-12-04T15:55:51;5.40;;;2.72;;
69714;SDS011;56981;53.532;49.398;2022-12-04T16:04:54;1.08;;;1.00;;
69714;SDS011;56981;53.532;49.398;2022-12-04T16:07:22;7.05;;;2.67;;
69714;SDS011;56981;53.532;49.398;2022-12-04T16:09:58;8.27;;;3.92;;
69714;SDS011;56981;53.532;49.398;2022-12-04T16:12:50;5.40;;;3.72;;
69714;SDS011;56981;53.532;49.398;2022-12-04T16:15:41;6.00;;;3.75;;
69714;SDS011;56981;53.532;49.398;2022-12-04T16:18:12;11.02;;;3.65;;
69714;SDS011;56981;53.532;49.398;2022-12-04T16:20:39;11.73;;;4.35;;
69714;SDS011;56981;53.532;49.398;2022-12-04T16:23:08;16.10;;;5.60;;
69714;SDS011;56981;53.532;49.398;2022-12-04T16:25:37;21.52;;;9.73;;
69714;SDS011;56981;53.532;49.398;2022-12-04T16:28:03;20.40;;;9.32;;
69714;SDS011;56981;53.532;49.398;2022-12-04T16:30:34;19.77;;;8.23;;
69714;SDS011;56981;53.532;49.398;2022-12-04T16:33:13;20.25;;;9.13;;
69714;SDS011;56981;53.532;49.398;2022-12-04T16:35:43;19.10;;;7.57;;
69714;SDS011;56981;53.532;49.398;2022-12-04T16:38:21;19.35;;;7.03;;
69714;SDS011;56981;53.532;49.398;2022-12-04T16:41:34;17.08;;;8.95;;
69714;SDS011;56981;53.532;49.398;2022-12-04T16:44:07;17.63;;;7.57;;
69714;SDS011;56981;53.532;49.398;2022-12-04T16:46:41;33.13;;;9.52;;
69714;SDS011;56981;53.532;49.398;2022-12-04T16:49:09;18.90;;;8.70;;
69714;SDS011;56981;53.532;49.398;2022-12-04T16:51:36;22.33;;;8.95;;
69714;SDS011;56981;53.532;49.398;2022-12-04T16:54:08;10.18;;;5.40;;
69714;SDS011;56981;53.532;49.398;2022-12-04T16:56:34;25.63;;;7.97;;
69714;SDS011;56981;53.532;49.398;2022-12-04T16:59:03;22.67;;;11.35;;
69714;SDS011;56981;53.532;49.398;2022-12-04T17:01:32;24.05;;;10.45;;
69714;SDS011;56981;53.532;49.398;2022-12-04T17:04:01;19.58;;;10.07;;
69714;SDS011;56981;53.532;49.398;2022-12-04T17:06:27;24.33;;;10.07;;
69714;SDS011;56981;53.532;49.398;2022-12-04T17:08:57;19.58;;;8.18;;
69714;SDS011;56981;53.532;49.398;2022-12-04T17:11:23;15.15;;;6.22;;
69714;SDS011;56981;53.532;49.398;2022-12-04T17:13:49;5.88;;;3.28;;
69714;SDS011;56981;53.532;49.398;2022-12-04T17:16:15;17.02;;;6.50;;
69714;SDS011;56981;53.532;49.398;2022-12-04T17:18:47;20.23;;;9.02;;
69714;SDS011;56981;53.532;49.398;2022-12-04T17:21:21;20.60;;;8.25;;
69714;SDS011;56981;53.532;49.398;2022-12-04T17:23:47;17.25;;;8.65;;
69714;SDS011;56981;53.532;49.398;2022-12-04T17:26:33;17.60;;;7.18;;
69714;SDS011;56981;53.532;49.398;2022-12-04T17:29:04;17.73;;;7.85;;
69714;SDS011;56981;53.532;49.398;2022-12-04T17:34:31;20.75;;;8.52;;
69714;SDS011;56981;53.532;49.398;2022-12-04T17:37:04;9.82;;;5.93;;
69714;SDS011;56981;53.532;49.398;2022-12-04T17:39:30;15.88;;;5.88;;